createdAt,value
2023-01-23T00:01:37.563Z,101047.00
2023-01-23T00:04:06.536Z,101043.00
2023-01-23T00:06:34.715Z,101043.00
2023-01-23T00:09:02.629Z,101040.00
2023-01-23T00:11:31.978Z,101028.00
2023-01-23T00:14:02.165Z,101037.00
2023-01-23T00:16:34.014Z,101041.00
2023-01-23T00:19:01.940Z,101036.00
2023-01-23T00:21:31.697Z,101045.00
2023-01-23T00:24:02.388Z,101046.00
2023-01-23T00:26:33.687Z,101047.00
2023-01-23T00:29:02.180Z,101049.00
2023-01-23T00:31:36.504Z,101053.00
2023-01-23T00:34:07.865Z,101054.00
2023-01-23T00:36:40.385Z,101028.00
2023-01-23T00:39:12.809Z,101057.00
2023-01-23T00:41:40.657Z,101052.00
2023-01-23T00:44:08.565Z,101060.00
2023-01-23T00:46:37.929Z,101064.00
2023-01-23T00:49:05.830Z,101067.00
2023-01-23T00:51:33.815Z,101083.00
2023-01-23T00:54:02.461Z,101082.00
2023-01-23T00:56:30.481Z,101075.00
2023-01-23T00:58:58.418Z,101075.00
2023-01-23T01:01:27.809Z,101083.00
2023-01-23T01:03:57.103Z,101077.00
2023-01-23T01:06:25.138Z,101080.00
2023-01-23T01:08:53.279Z,101085.00
2023-01-23T01:11:21.170Z,101092.00
2023-01-23T01:13:49.024Z,101072.00
2023-01-23T01:16:17.473Z,101089.00
2023-01-23T01:18:45.464Z,101094.00
2023-01-23T01:21:16.638Z,101092.00
2023-01-23T01:23:44.533Z,101103.00
2023-01-23T01:26:13.222Z,101089.00
2023-01-23T01:28:43.015Z,101102.00
2023-01-23T01:31:15.010Z,101086.00
2023-01-23T01:33:45.127Z,101105.00
2023-01-23T01:36:17.380Z,101113.00
2023-01-23T01:38:47.967Z,101121.00
2023-01-23T01:41:16.586Z,101116.00
2023-01-23T01:43:45.479Z,101118.00
2023-01-23T01:46:21.751Z,101116.00
2023-01-23T01:49:05.618Z,101118.00
2023-01-23T01:51:41.418Z,101127.00
2023-01-23T01:54:19.016Z,101128.00
2023-01-23T01:56:54.357Z,101136.00
2023-01-23T01:59:27.995Z,101131.00
2023-01-23T02:02:05.127Z,101133.00
2023-01-23T02:04:37.480Z,101128.00
2023-01-23T02:07:28.197Z,101132.00
2023-01-23T02:09:56.612Z,101133.00
2023-01-23T02:12:26.828Z,101137.00
2023-01-23T02:14:55.345Z,101142.00
2023-01-23T02:17:23.293Z,101138.00
2023-01-23T02:20:02.229Z,101152.00
2023-01-23T02:22:53.322Z,101144.00
2023-01-23T02:25:34.591Z,101149.00
2023-01-23T02:28:04.135Z,101148.00
2023-01-23T02:30:37.735Z,101147.00
2023-01-23T02:33:45.127Z,101144.00
2023-01-23T02:36:13.293Z,101138.00
2023-01-23T02:38:52.150Z,101140.00
2023-01-23T02:41:28.651Z,101130.00
2023-01-23T02:44:03.016Z,101114.00
2023-01-23T02:46:31.769Z,101146.00
2023-01-23T02:48:59.817Z,101147.00
2023-01-23T02:51:27.914Z,101144.00
2023-01-23T02:53:55.888Z,101149.00
2023-01-23T02:56:23.868Z,101150.00
2023-01-23T02:59:09.716Z,101155.00
2023-01-23T03:01:39.001Z,101148.00
2023-01-23T03:04:07.466Z,101161.00
2023-01-23T03:06:38.169Z,101160.00
2023-01-23T03:09:12.476Z,101154.00
2023-01-23T03:11:43.478Z,101157.00
2023-01-23T03:14:15.549Z,101172.00
2023-01-23T03:16:49.811Z,101156.00
2023-01-23T03:19:19.156Z,101167.00
2023-01-23T03:21:47.590Z,101162.00
2023-01-23T03:24:16.556Z,101168.00
2023-01-23T03:26:47.263Z,101163.00
2023-01-23T03:29:35.650Z,101159.00
2023-01-23T03:32:06.274Z,101156.00
2023-01-23T03:34:34.591Z,101153.00
2023-01-23T03:37:04.024Z,101151.00
2023-01-23T03:39:51.773Z,101147.00
2023-01-23T03:42:21.099Z,101144.00
2023-01-23T03:44:54.165Z,101119.00
2023-01-23T03:47:27.228Z,101146.00
2023-01-23T03:49:56.241Z,101148.00
2023-01-23T03:52:24.866Z,101142.00
2023-01-23T03:54:53.437Z,101128.00
2023-01-23T03:57:21.385Z,101140.00
2023-01-23T03:59:49.493Z,101153.00
2023-01-23T04:02:20.473Z,101154.00
2023-01-23T04:04:49.712Z,101157.00
2023-01-23T04:07:18.214Z,101157.00
2023-01-23T04:09:46.151Z,101163.00
2023-01-23T04:12:14.257Z,101157.00
2023-01-23T04:14:45.383Z,101153.00
2023-01-23T04:17:15.059Z,101164.00
2023-01-23T04:19:42.955Z,101164.00
2023-01-23T04:22:12.126Z,101174.00
2023-01-23T04:24:45.727Z,101177.00
2023-01-23T04:27:13.580Z,101177.00
2023-01-23T04:29:41.926Z,101195.00
2023-01-23T04:32:10.497Z,101195.00
2023-01-23T04:34:44.777Z,101189.00
2023-01-23T04:37:14.223Z,101189.00
2023-01-23T04:39:42.269Z,101187.00
2023-01-23T04:42:11.070Z,101195.00
2023-01-23T04:44:53.131Z,101198.00
2023-01-23T04:47:39.870Z,101204.00
2023-01-23T04:50:12.186Z,101213.00
2023-01-23T04:52:44.171Z,101203.00
2023-01-23T04:55:12.138Z,101215.00
2023-01-23T04:57:40.004Z,101212.00
2023-01-23T05:00:19.811Z,101211.00
2023-01-23T05:02:48.097Z,101212.00
2023-01-23T05:05:34.218Z,101219.00
2023-01-23T05:08:04.237Z,101214.00
2023-01-23T05:10:32.429Z,101221.00
2023-01-23T05:13:06.894Z,101225.00
2023-01-23T05:15:34.773Z,101210.00
2023-01-23T05:18:02.805Z,101225.00
2023-01-23T05:20:30.769Z,101217.00
2023-01-23T05:23:03.692Z,101222.00
2023-01-23T05:25:38.266Z,101215.00
2023-01-23T05:28:06.155Z,101227.00
2023-01-23T05:30:34.980Z,101223.00
2023-01-23T05:33:20.423Z,101220.00
2023-01-23T05:35:48.448Z,101229.00
2023-01-23T05:38:17.657Z,101227.00
2023-01-23T05:40:45.572Z,101230.00
2023-01-23T05:43:16.718Z,101237.00
2023-01-23T05:45:44.651Z,101240.00
2023-01-23T05:48:22.661Z,101245.00
2023-01-23T05:50:50.581Z,101244.00
2023-01-23T05:53:19.861Z,101239.00
2023-01-23T05:55:47.779Z,101241.00
2023-01-23T05:58:16.334Z,101238.00
2023-01-23T06:01:04.535Z,101247.00
2023-01-23T06:03:51.139Z,101246.00
2023-01-23T06:06:42.702Z,101241.00
2023-01-23T06:09:12.422Z,101246.00
2023-01-23T06:11:40.415Z,101251.00
2023-01-23T06:14:10.299Z,101253.00
2023-01-23T06:16:38.200Z,101251.00
2023-01-23T06:19:06.852Z,101253.00
2023-01-23T06:21:37.353Z,101259.00
2023-01-23T06:24:06.053Z,101265.00
2023-01-23T06:26:35.353Z,101263.00
2023-01-23T06:29:03.310Z,101268.00
2023-01-23T06:31:32.499Z,101271.00
2023-01-23T06:34:02.375Z,101270.00
2023-01-23T06:36:34.110Z,101272.00
2023-01-23T06:39:02.179Z,101276.00
2023-01-23T06:41:38.407Z,101271.00
2023-01-23T06:44:08.705Z,101265.00
2023-01-23T06:46:37.197Z,101262.00
2023-01-23T06:49:06.484Z,101268.00
2023-01-23T06:51:37.605Z,101268.00
2023-01-23T06:54:07.980Z,101275.00
2023-01-23T06:56:36.042Z,101274.00
2023-01-23T06:59:08.854Z,101271.00
2023-01-23T07:01:36.902Z,101292.00
2023-01-23T07:04:18.043Z,101294.00
2023-01-23T07:06:48.306Z,101300.00
2023-01-23T07:09:18.060Z,101305.00
2023-01-23T07:11:52.585Z,101308.00
2023-01-23T07:14:21.901Z,101308.00
2023-01-23T07:16:52.870Z,101314.00
2023-01-23T07:19:21.380Z,101315.00
2023-01-23T07:21:49.554Z,101320.00
2023-01-23T07:24:17.732Z,101322.00
2023-01-23T07:26:45.686Z,101328.00
2023-01-23T07:29:14.283Z,101339.00
2023-01-23T07:31:43.442Z,101342.00
2023-01-23T07:34:11.328Z,101340.00
2023-01-23T07:36:39.246Z,101352.00
2023-01-23T07:39:07.099Z,101360.00
2023-01-23T07:41:34.913Z,101356.00
2023-01-23T07:44:09.569Z,101347.00
2023-01-23T07:46:37.443Z,101375.00
2023-01-23T07:49:06.674Z,101370.00
2023-01-23T07:51:35.609Z,101370.00
2023-01-23T07:54:03.495Z,101376.00
2023-01-23T07:56:32.755Z,101383.00
2023-01-23T07:59:01.137Z,101373.00
2023-01-23T08:01:28.969Z,101382.00
2023-01-23T08:03:57.015Z,101383.00
2023-01-23T08:06:26.271Z,101388.00
2023-01-23T08:08:54.162Z,101385.00
2023-01-23T08:11:23.879Z,101386.00
2023-01-23T08:13:52.282Z,101396.00
2023-01-23T08:16:20.321Z,101398.00
2023-01-23T08:18:48.218Z,101396.00
2023-01-23T08:21:16.069Z,101395.00
2023-01-23T08:23:46.274Z,101397.00
2023-01-23T08:26:16.630Z,101388.00
2023-01-23T08:28:46.279Z,101401.00
2023-01-23T08:31:15.021Z,101399.00
2023-01-23T08:33:43.113Z,101405.00
2023-01-23T08:36:13.991Z,101401.00
2023-01-23T08:38:42.065Z,101397.00
2023-01-23T08:41:12.645Z,101406.00
2023-01-23T08:43:41.684Z,101410.00
2023-01-23T08:46:10.988Z,101397.00
2023-01-23T08:48:39.780Z,101406.00
2023-01-23T08:51:11.129Z,101406.00
2023-01-23T08:53:39.503Z,101405.00
2023-01-23T08:56:09.583Z,101399.00
2023-01-23T08:58:38.740Z,101404.00
2023-01-23T09:01:06.766Z,101407.00
2023-01-23T09:03:34.772Z,101413.00
2023-01-23T09:06:02.967Z,101416.00
2023-01-23T09:08:30.857Z,101411.00
2023-01-23T09:11:05.005Z,101415.00
2023-01-23T09:13:33.380Z,101420.00
2023-01-23T09:16:03.976Z,101416.00
2023-01-23T09:18:32.525Z,101411.00
2023-01-23T09:21:00.444Z,101416.00
2023-01-23T09:23:28.343Z,101422.00
2023-01-23T09:25:56.237Z,101426.00
2023-01-23T09:28:24.070Z,101420.00
2023-01-23T09:30:51.958Z,101422.00
2023-01-23T09:33:24.855Z,101422.00
2023-01-23T09:35:53.036Z,101429.00
2023-01-23T09:38:20.954Z,101420.00
2023-01-23T09:40:53.128Z,101424.00
2023-01-23T09:43:28.299Z,101423.00
2023-01-23T09:46:06.645Z,101423.00
2023-01-23T09:48:44.776Z,101421.00
2023-01-23T09:51:23.593Z,101420.00
2023-01-23T09:53:55.311Z,101419.00
2023-01-23T09:56:32.412Z,101414.00
2023-01-23T09:59:11.905Z,101406.00
2023-01-23T10:01:40.489Z,101407.00
2023-01-23T10:04:13.670Z,101416.00
2023-01-23T10:07:13.482Z,101416.00
2023-01-23T10:10:02.879Z,101410.00
2023-01-23T10:12:50.560Z,101409.00
2023-01-23T10:15:31.749Z,101402.00
2023-01-23T10:18:17.487Z,101404.00
2023-01-23T10:20:59.958Z,101395.00
2023-01-23T10:23:47.461Z,101392.00
2023-01-23T10:26:21.607Z,101374.00
2023-01-23T10:28:52.650Z,101389.00
2023-01-23T10:31:36.682Z,101401.00
2023-01-23T10:34:17.917Z,101387.00
2023-01-23T10:37:03.145Z,101396.00
2023-01-23T10:39:45.568Z,101389.00
2023-01-23T10:42:14.730Z,101381.00
2023-01-23T10:44:42.577Z,101389.00
2023-01-23T10:47:22.477Z,101398.00
2023-01-23T10:49:50.615Z,101400.00
2023-01-23T10:52:37.726Z,101399.00
2023-01-23T10:55:26.687Z,101393.00
2023-01-23T10:57:58.110Z,101388.00
2023-01-23T11:00:35.804Z,101394.00
2023-01-23T11:03:32.507Z,101395.00
2023-01-23T11:06:05.399Z,101380.00
2023-01-23T11:08:37.534Z,101392.00
2023-01-23T11:11:25.600Z,101406.00
2023-01-23T11:14:08.904Z,101393.00
2023-01-23T11:16:37.244Z,101405.00
2023-01-23T11:19:18.964Z,101396.00
2023-01-23T11:21:56.364Z,101381.00
2023-01-23T11:24:40.850Z,101400.00
2023-01-23T11:27:26.254Z,101373.00
2023-01-23T11:30:23.265Z,101389.00
2023-01-23T11:32:58.486Z,101386.00
2023-01-23T11:35:45.259Z,101385.00
2023-01-23T11:38:27.294Z,101387.00
2023-01-23T11:40:59.837Z,101390.00
2023-01-23T11:43:27.736Z,101386.00
2023-01-23T11:46:25.145Z,101387.00
2023-01-23T11:49:16.838Z,101387.00
2023-01-23T11:51:59.020Z,101396.00
2023-01-23T11:54:59.797Z,101388.00
2023-01-23T11:57:41.457Z,101382.00
2023-01-23T12:00:29.472Z,101373.00
2023-01-23T12:03:31.656Z,101375.00
2023-01-23T12:06:33.809Z,101378.00
2023-01-23T12:09:12.171Z,101386.00
2023-01-23T12:12:00.239Z,101383.00
2023-01-23T12:14:39.680Z,101387.00
2023-01-23T12:17:28.138Z,101392.00
2023-01-23T12:20:24.104Z,101384.00
2023-01-23T12:23:10.789Z,101379.00
2023-01-23T12:25:41.668Z,101382.00
2023-01-23T12:28:32.757Z,101373.00
2023-01-23T12:31:17.673Z,101392.00
2023-01-23T12:34:22.062Z,101390.00
2023-01-23T12:37:29.089Z,101382.00
2023-01-23T12:40:13.830Z,101391.00
2023-01-23T12:42:51.453Z,101375.00
2023-01-23T12:45:24.486Z,101384.00
2023-01-23T12:48:03.741Z,101373.00
2023-01-23T12:50:43.216Z,101382.00
2023-01-23T12:53:14.394Z,101377.00
2023-01-23T12:55:56.550Z,101380.00
2023-01-23T12:58:30.132Z,101371.00
2023-01-23T13:01:27.286Z,101377.00
2023-01-23T13:04:26.095Z,101379.00
2023-01-23T13:07:35.412Z,101384.00
2023-01-23T13:11:12.018Z,101387.00
2023-01-23T13:13:40.535Z,101394.00
2023-01-23T13:16:13.697Z,101380.00
2023-01-23T13:19:11.461Z,101385.00
2023-01-23T13:21:59.169Z,101373.00
2023-01-23T13:24:59.663Z,101376.00
2023-01-23T13:27:47.210Z,101382.00
2023-01-23T13:30:43.616Z,101394.00
2023-01-23T13:33:55.378Z,101388.00
2023-01-23T13:36:38.194Z,101390.00
2023-01-23T13:39:28.283Z,101390.00
2023-01-23T13:42:45.555Z,101385.00
2023-01-23T13:45:32.804Z,101381.00
2023-01-23T14:21:52.334Z,101394.00
2023-01-23T14:24:24.322Z,101390.00
2023-01-23T14:27:02.533Z,101397.00
2023-01-23T14:29:32.576Z,101395.00
2023-01-23T14:32:01.895Z,101391.00
2023-01-23T14:34:30.197Z,101390.00
2023-01-23T14:37:05.181Z,101384.00
2023-01-23T14:39:36.496Z,101392.00
2023-01-23T14:42:11.664Z,101380.00
2023-01-23T14:44:48.168Z,101399.00
2023-01-23T14:47:32.858Z,101396.00
2023-01-23T14:50:04.345Z,101387.00
2023-01-23T14:52:32.596Z,101398.00
2023-01-23T14:55:07.655Z,101406.00
2023-01-23T14:57:38.347Z,101405.00
2023-01-23T15:00:08.779Z,101403.00
2023-01-23T15:02:38.134Z,101398.00
2023-01-23T15:05:19.521Z,101407.00
2023-01-23T15:07:54.366Z,101402.00
2023-01-23T15:10:25.410Z,101393.00
2023-01-23T15:12:58.767Z,101394.00
2023-01-23T15:15:29.485Z,101398.00
2023-01-23T15:18:01.496Z,101397.00
2023-01-23T15:20:38.516Z,101392.00
2023-01-23T15:23:31.408Z,101395.00
2023-01-23T15:26:24.319Z,101400.00
2023-01-23T15:28:55.200Z,101397.00
2023-01-23T15:31:31.156Z,101407.00
2023-01-23T15:34:23.542Z,101406.00
2023-01-23T15:36:57.482Z,101407.00
2023-01-23T15:39:30.220Z,101419.00
2023-01-23T15:42:02.494Z,101424.00
2023-01-23T15:44:33.548Z,101421.00
2023-01-23T15:47:03.710Z,101422.00
2023-01-23T15:49:35.220Z,101426.00
2023-01-23T15:52:21.440Z,101422.00
2023-01-23T15:54:52.572Z,101424.00
2023-01-23T15:57:20.554Z,101423.00
2023-01-23T15:59:48.555Z,101432.00
2023-01-23T16:02:30.167Z,101419.00
2023-01-23T16:05:01.016Z,101425.00
2023-01-23T16:07:34.950Z,101417.00
2023-01-23T16:10:05.339Z,101430.00
2023-01-23T16:12:35.493Z,101429.00
2023-01-23T16:15:03.444Z,101433.00
2023-01-23T16:17:31.378Z,101434.00
2023-01-23T16:20:00.591Z,101434.00
2023-01-23T16:22:30.141Z,101444.00
2023-01-23T16:24:59.266Z,101443.00
2023-01-23T16:27:28.090Z,101443.00
2023-01-23T16:29:56.951Z,101444.00
2023-01-23T16:32:25.442Z,101448.00
2023-01-23T16:34:53.514Z,101451.00
2023-01-23T16:37:22.834Z,101454.00
2023-01-23T16:39:50.804Z,101445.00
2023-01-23T16:42:23.486Z,101459.00
2023-01-23T16:44:51.927Z,101473.00
2023-01-23T16:47:19.941Z,101471.00
2023-01-23T16:49:53.036Z,101475.00
2023-01-23T16:52:26.601Z,101460.00
2023-01-23T16:54:56.353Z,101471.00
2023-01-23T16:57:25.686Z,101470.00
2023-01-23T16:59:56.214Z,101472.00
2023-01-23T17:02:30.381Z,101460.00
2023-01-23T17:04:58.546Z,101458.00
2023-01-23T17:07:27.822Z,101470.00
2023-01-23T17:09:55.822Z,101467.00
2023-01-23T17:12:29.259Z,101469.00
2023-01-23T17:14:58.097Z,101471.00
2023-01-23T17:17:32.866Z,101469.00
2023-01-23T17:20:02.426Z,101476.00
2023-01-23T17:22:39.420Z,101484.00
2023-01-23T17:25:14.568Z,101475.00
2023-01-23T17:27:45.793Z,101471.00
2023-01-23T17:30:17.750Z,101487.00
2023-01-23T17:32:49.568Z,101492.00
2023-01-23T17:35:22.807Z,101476.00
2023-01-23T17:37:52.903Z,101474.00
2023-01-23T17:40:21.892Z,101470.00
2023-01-23T17:42:49.949Z,101474.00
2023-01-23T17:45:20.452Z,101487.00
2023-01-23T17:47:52.534Z,101488.00
2023-01-23T17:50:23.387Z,101483.00
2023-01-23T17:52:54.526Z,101478.00
2023-01-23T17:55:28.229Z,101490.00
2023-01-23T17:57:56.392Z,101483.00
2023-01-23T18:00:27.024Z,101481.00
2023-01-23T18:02:59.354Z,101471.00
2023-01-23T18:05:28.224Z,101486.00
2023-01-23T18:07:57.619Z,101478.00
2023-01-23T18:10:29.125Z,101485.00
2023-01-23T18:13:14.657Z,101485.00
2023-01-23T18:15:57.170Z,101488.00
2023-01-23T18:18:32.063Z,101483.00
2023-01-23T18:21:02.771Z,101481.00
2023-01-23T18:23:37.050Z,101479.00
2023-01-23T18:26:22.768Z,101484.00
2023-01-23T18:29:00.697Z,101477.00
2023-01-23T18:31:44.957Z,101494.00
2023-01-23T18:34:31.747Z,101498.00
2023-01-23T18:37:14.131Z,101494.00
2023-01-23T18:40:03.674Z,101494.00
2023-01-23T18:42:39.225Z,101489.00
2023-01-23T18:45:16.560Z,101489.00
2023-01-23T18:47:46.989Z,101492.00
2023-01-23T18:50:22.698Z,101485.00
2023-01-23T18:53:06.895Z,101485.00
2023-01-23T18:55:46.368Z,101487.00
2023-01-23T18:58:40.333Z,101481.00
2023-01-23T19:01:23.547Z,101467.00
2023-01-23T19:03:52.527Z,101478.00
2023-01-23T19:06:24.132Z,101477.00
2023-01-23T19:08:56.041Z,101480.00
2023-01-23T19:11:48.870Z,101490.00
2023-01-23T19:14:48.000Z,101487.00
2023-01-23T19:17:31.442Z,101486.00
2023-01-23T19:20:06.664Z,101487.00
2023-01-23T19:22:55.899Z,101491.00
2023-01-23T19:25:24.753Z,101493.00
2023-01-23T19:27:57.386Z,101502.00
2023-01-23T19:30:26.546Z,101498.00
2023-01-23T19:32:54.643Z,101509.00
2023-01-23T19:35:23.150Z,101501.00
2023-01-23T19:37:51.387Z,101491.00
2023-01-23T19:40:19.432Z,101499.00
2023-01-23T19:42:58.697Z,101501.00
2023-01-23T19:45:35.034Z,101505.00
2023-01-23T19:48:02.897Z,101501.00
2023-01-23T19:50:30.874Z,101496.00
2023-01-23T19:53:00.147Z,101508.00
2023-01-23T19:55:32.200Z,101511.00
2023-01-23T19:58:00.473Z,101510.00
2023-01-23T20:00:32.130Z,101502.00
2023-01-23T20:03:01.409Z,101511.00
2023-01-23T20:05:29.716Z,101512.00
2023-01-23T20:07:58.680Z,101517.00
2023-01-23T20:10:26.517Z,101512.00
2023-01-23T20:12:56.496Z,101516.00
2023-01-23T20:15:26.856Z,101496.00
2023-01-23T20:17:54.994Z,101510.00
2023-01-23T20:20:24.552Z,101507.00
2023-01-23T20:22:52.511Z,101501.00
2023-01-23T20:25:21.182Z,101505.00
2023-01-23T20:27:49.391Z,101510.00
2023-01-23T20:30:20.613Z,101508.00
2023-01-23T20:32:49.070Z,101507.00
2023-01-23T20:35:17.280Z,101505.00
2023-01-23T20:37:46.468Z,101506.00
2023-01-23T20:40:14.626Z,101488.00
2023-01-23T20:42:42.568Z,101513.00
2023-01-23T20:45:11.294Z,101504.00
2023-01-23T20:47:39.251Z,101511.00
2023-01-23T20:50:08.068Z,101499.00
2023-01-23T20:52:53.592Z,101509.00
2023-01-23T20:55:23.107Z,101510.00
2023-01-23T20:58:08.537Z,101506.00
2023-01-23T21:00:36.477Z,101506.00
2023-01-23T21:03:04.507Z,101507.00
2023-01-23T21:05:32.498Z,101508.00
2023-01-23T21:08:00.390Z,101498.00
2023-01-23T21:10:29.637Z,101503.00
2023-01-23T21:12:57.488Z,101508.00
2023-01-23T21:15:25.419Z,101502.00
2023-01-23T21:17:53.285Z,101512.00
2023-01-23T21:20:21.319Z,101508.00
2023-01-23T21:22:49.186Z,101507.00
2023-01-23T21:25:17.147Z,101514.00
2023-01-23T21:27:46.288Z,101514.00
2023-01-23T21:30:15.013Z,101509.00
2023-01-23T21:32:43.154Z,101511.00
2023-01-23T21:35:11.741Z,101513.00
2023-01-23T21:37:39.589Z,101516.00
2023-01-23T21:40:10.291Z,101512.00
2023-01-23T21:42:38.131Z,101514.00
2023-01-23T21:45:08.705Z,101512.00
2023-01-23T21:47:36.645Z,101522.00
2023-01-23T21:50:05.161Z,101526.00
2023-01-23T21:52:33.011Z,101528.00
2023-01-23T21:55:00.850Z,101537.00
2023-01-23T21:57:28.691Z,101524.00
2023-01-23T22:00:14.259Z,101525.00
2023-01-23T22:02:44.273Z,101522.00
2023-01-23T22:05:12.215Z,101509.00
2023-01-23T22:07:40.106Z,101530.00
2023-01-23T22:10:09.658Z,101520.00
2023-01-23T22:12:37.543Z,101526.00
2023-01-23T22:15:06.493Z,101523.00
2023-01-23T22:17:35.153Z,101523.00
2023-01-23T22:20:06.273Z,101516.00
2023-01-23T22:22:34.182Z,101510.00
2023-01-23T22:25:02.155Z,101521.00
2023-01-23T22:27:30.069Z,101514.00
2023-01-23T22:29:57.902Z,101531.00
2023-01-23T22:32:25.894Z,101531.00
2023-01-23T22:34:54.469Z,101526.00
2023-01-23T22:37:23.628Z,101543.00
2023-01-23T22:39:51.534Z,101528.00
2023-01-23T22:42:20.897Z,101523.00
2023-01-23T22:44:48.758Z,101531.00
2023-01-23T22:47:16.609Z,101521.00
2023-01-23T22:49:44.502Z,101523.00
2023-01-23T22:52:12.427Z,101515.00
2023-01-23T22:54:41.780Z,101505.00
2023-01-23T22:57:09.706Z,101504.00
2023-01-23T22:59:37.532Z,101513.00
2023-01-23T23:02:05.393Z,101517.00
2023-01-23T23:04:34.034Z,101509.00
2023-01-23T23:07:01.891Z,101510.00
2023-01-23T23:09:30.184Z,101504.00
2023-01-23T23:11:59.374Z,101507.00
2023-01-23T23:14:27.258Z,101508.00
2023-01-23T23:16:55.106Z,101511.00
2023-01-23T23:19:22.949Z,101513.00
2023-01-23T23:21:50.882Z,101525.00
2023-01-23T23:24:18.785Z,101513.00
2023-01-23T23:26:48.135Z,101513.00
2023-01-23T23:29:17.383Z,101510.00
2023-01-23T23:31:45.326Z,101503.00
2023-01-23T23:34:13.298Z,101507.00
2023-01-23T23:36:41.171Z,101513.00
2023-01-23T23:39:09.049Z,101519.00
2023-01-23T23:41:36.992Z,101519.00
2023-01-23T23:44:05.286Z,101528.00
2023-01-23T23:46:34.470Z,101529.00
2023-01-23T23:49:02.399Z,101518.00
2023-01-23T23:51:30.305Z,101522.00
2023-01-23T23:53:58.192Z,101521.00
2023-01-23T23:56:29.000Z,101526.00
2023-01-23T23:58:57.408Z,101526.00
